createdAt,value
2023-01-29T00:01:03.252Z,101128.22
2023-01-29T00:04:05.963Z,101119.16
2023-01-29T00:07:08.663Z,101132.41
2023-01-29T00:10:11.820Z,101128.28
2023-01-29T00:13:15.439Z,101113.31
2023-01-29T00:16:18.032Z,101121.03
2023-01-29T00:19:20.666Z,101122.47
2023-01-29T00:22:23.134Z,101119.84
2023-01-29T00:25:25.626Z,101136.34
2023-01-29T00:28:28.139Z,101120.78
2023-01-29T00:31:32.251Z,101140.44
2023-01-29T00:34:34.770Z,101128.69
2023-01-29T00:37:37.837Z,101146.13
2023-01-29T00:41:00.264Z,101142.88
2023-01-29T00:44:21.304Z,101143.81
2023-01-29T00:47:35.497Z,101152.63
2023-01-29T00:50:38.256Z,101151.47
2023-01-29T00:53:41.634Z,101126.47
2023-01-29T00:56:44.258Z,101138.47
2023-01-29T00:59:46.668Z,101142.88
2023-01-29T01:03:07.319Z,101133.31
2023-01-29T01:06:11.160Z,101134.03
2023-01-29T01:09:32.116Z,101140.84
2023-01-29T01:12:37.173Z,101158.44
2023-01-29T01:15:41.273Z,101160.50
2023-01-29T01:18:43.754Z,101157.19
2023-01-29T01:21:48.283Z,101162.84
2023-01-29T01:24:50.778Z,101167.75
2023-01-29T01:27:54.989Z,101151.34
2023-01-29T01:30:57.543Z,101164.97
2023-01-29T01:34:00.767Z,101160.78
2023-01-29T01:37:03.489Z,101170.31
2023-01-29T01:40:12.862Z,101160.19
2023-01-29T01:43:15.348Z,101167.16
2023-01-29T01:46:17.990Z,101149.50
2023-01-29T01:49:21.752Z,101147.28
2023-01-29T01:52:24.472Z,101161.00
2023-01-29T01:55:30.268Z,101157.75
2023-01-29T01:59:02.500Z,101164.59
2023-01-29T02:02:25.868Z,101167.28
2023-01-29T02:05:49.298Z,101172.28
2023-01-29T02:09:19.873Z,101171.09
2023-01-29T02:12:23.212Z,101172.72
2023-01-29T02:15:25.697Z,101174.22
2023-01-29T02:18:28.149Z,101179.88
2023-01-29T02:21:48.585Z,101191.84
2023-01-29T02:25:10.013Z,101193.13
2023-01-29T02:28:24.593Z,101179.97
2023-01-29T02:31:34.046Z,101174.63
2023-01-29T02:35:12.249Z,101193.41
2023-01-29T02:38:44.206Z,101203.59
2023-01-29T02:41:49.742Z,101193.81
2023-01-29T02:45:00.454Z,101196.97
2023-01-29T02:48:03.179Z,101195.06
2023-01-29T02:51:14.211Z,101201.78
2023-01-29T02:54:24.845Z,101197.63
2023-01-29T02:57:40.778Z,101206.78
2023-01-29T03:00:47.176Z,101209.44
2023-01-29T03:03:54.848Z,101217.31
2023-01-29T03:07:05.595Z,101213.97
2023-01-29T03:10:26.597Z,101219.84
2023-01-29T03:13:46.843Z,101204.06
2023-01-29T03:16:53.908Z,101218.88
2023-01-29T03:19:58.419Z,101217.97
2023-01-29T03:23:18.857Z,101209.16
2023-01-29T03:26:41.422Z,101217.09
2023-01-29T03:30:05.186Z,101224.66
2023-01-29T03:33:32.865Z,101229.22
2023-01-29T03:36:47.913Z,101219.81
2023-01-29T03:39:50.909Z,101218.28
2023-01-29T03:42:59.617Z,101232.00
2023-01-29T03:46:10.046Z,101237.72
2023-01-29T03:49:21.566Z,101235.41
2023-01-29T03:52:27.892Z,101229.94
2023-01-29T03:56:07.194Z,101228.19
2023-01-29T03:59:12.014Z,101232.84
2023-01-29T04:03:03.180Z,101230.63
2023-01-29T04:06:19.017Z,101220.38
2023-01-29T04:09:40.520Z,101214.69
2023-01-29T04:12:51.284Z,101230.53
2023-01-29T04:15:58.344Z,101219.13
2023-01-29T04:19:24.936Z,101227.25
2023-01-29T04:22:32.926Z,101208.06
2023-01-29T04:25:45.492Z,101207.03
2023-01-29T04:29:10.489Z,101231.44
2023-01-29T04:32:14.027Z,101235.88
2023-01-29T04:35:24.505Z,101219.22
2023-01-29T04:39:12.747Z,101232.34
2023-01-29T04:42:50.805Z,101241.81
2023-01-29T04:46:11.445Z,101239.00
2023-01-29T04:49:25.801Z,101229.22
2023-01-29T04:52:58.102Z,101213.28
2023-01-29T04:56:16.188Z,101204.59
2023-01-29T04:59:40.110Z,101227.69
2023-01-29T05:02:44.877Z,101219.09
2023-01-29T05:05:48.949Z,101227.81
2023-01-29T05:08:52.396Z,101215.25
2023-01-29T05:11:55.770Z,101222.13
2023-01-29T05:15:02.187Z,101195.63
2023-01-29T05:18:09.122Z,101213.63
2023-01-29T05:21:11.794Z,101215.13
2023-01-29T05:24:17.787Z,101217.34
2023-01-29T05:27:50.552Z,101222.22
2023-01-29T05:30:55.357Z,101198.16
2023-01-29T05:33:58.104Z,101211.84
2023-01-29T05:37:00.501Z,101210.56
2023-01-29T05:40:03.038Z,101211.88
2023-01-29T05:43:06.708Z,101216.53
2023-01-29T05:46:10.342Z,101208.13
2023-01-29T05:49:13.269Z,101209.22
2023-01-29T05:52:15.678Z,101226.63
2023-01-29T05:55:18.275Z,101221.19
2023-01-29T05:58:20.744Z,101231.63
2023-01-29T06:01:25.484Z,101231.28
2023-01-29T06:04:29.953Z,101235.81
2023-01-29T06:07:32.614Z,101235.59
2023-01-29T06:10:35.592Z,101221.41
2023-01-29T06:13:38.921Z,101235.81
2023-01-29T06:16:41.328Z,101228.13
2023-01-29T06:19:44.345Z,101232.59
2023-01-29T06:22:46.973Z,101252.72
2023-01-29T06:25:49.417Z,101243.53
2023-01-29T06:28:52.308Z,101256.31
2023-01-29T06:31:55.410Z,101268.28
2023-01-29T06:34:58.048Z,101280.97
2023-01-29T06:38:00.554Z,101278.88
2023-01-29T06:41:14.238Z,101281.06
2023-01-29T06:44:16.710Z,101276.16
2023-01-29T06:47:19.126Z,101290.59
2023-01-29T06:50:21.539Z,101283.47
2023-01-29T06:53:25.009Z,101294.53
2023-01-29T06:56:27.571Z,101294.22
2023-01-29T06:59:30.133Z,101296.88
2023-01-29T07:02:32.694Z,101279.88
2023-01-29T07:05:35.489Z,101289.84
2023-01-29T07:08:39.752Z,101281.44
2023-01-29T07:11:42.352Z,101287.03
2023-01-29T07:14:44.789Z,101274.16
2023-01-29T07:18:00.717Z,101271.00
2023-01-29T07:21:07.604Z,101274.84
2023-01-29T07:24:10.289Z,101271.13
2023-01-29T07:27:12.794Z,101278.81
2023-01-29T07:30:16.332Z,101270.13
2023-01-29T07:33:19.307Z,101260.84
2023-01-29T07:36:22.366Z,101265.31
2023-01-29T07:39:25.022Z,101248.81
2023-01-29T07:42:27.819Z,101266.72
2023-01-29T07:45:31.478Z,101262.53
2023-01-29T07:48:34.035Z,101253.53
2023-01-29T07:51:36.511Z,101250.44
2023-01-29T07:54:38.979Z,101266.72
2023-01-29T07:57:42.048Z,101258.31
2023-01-29T08:00:45.217Z,101270.44
2023-01-29T08:03:49.431Z,101258.91
2023-01-29T08:06:53.011Z,101245.19
2023-01-29T08:09:55.991Z,101261.25
2023-01-29T08:13:01.329Z,101269.16
2023-01-29T08:16:04.832Z,101269.44
2023-01-29T08:19:07.264Z,101268.72
2023-01-29T08:22:09.975Z,101276.28
2023-01-29T08:25:13.642Z,101273.81
2023-01-29T08:28:16.120Z,101266.03
2023-01-29T08:31:23.891Z,101280.00
2023-01-29T08:34:26.949Z,101270.22
2023-01-29T08:37:29.421Z,101284.19
2023-01-29T08:40:34.780Z,101274.88
2023-01-29T08:43:37.335Z,101290.72
2023-01-29T08:46:40.837Z,101308.75
2023-01-29T08:49:43.773Z,101317.44
2023-01-29T08:52:46.461Z,101313.50
2023-01-29T08:55:48.959Z,101308.72
2023-01-29T08:58:51.440Z,101315.47
2023-01-29T09:01:53.915Z,101318.50
2023-01-29T09:04:56.386Z,101318.59
2023-01-29T09:07:59.045Z,101323.81
2023-01-29T09:11:02.013Z,101324.63
2023-01-29T09:14:04.710Z,101312.19
2023-01-29T09:17:07.115Z,101319.09
2023-01-29T09:20:10.376Z,101300.94
2023-01-29T09:23:14.061Z,101309.31
2023-01-29T09:26:16.656Z,101324.22
2023-01-29T09:29:19.215Z,101318.53
2023-01-29T09:32:43.948Z,101325.97
2023-01-29T09:35:46.906Z,101321.19
2023-01-29T09:38:49.390Z,101327.22
2023-01-29T09:41:56.292Z,101339.84
2023-01-29T09:45:03.860Z,101326.75
2023-01-29T09:48:12.250Z,101328.84
2023-01-29T09:51:50.508Z,101317.91
2023-01-29T09:55:11.164Z,101333.94
2023-01-29T09:58:27.941Z,101341.22
2023-01-29T10:01:38.305Z,101330.81
2023-01-29T10:05:01.568Z,101314.03
2023-01-29T10:08:06.844Z,101335.09
2023-01-29T10:11:28.020Z,101350.16
2023-01-29T10:14:47.313Z,101337.72
2023-01-29T10:17:55.660Z,101337.69
2023-01-29T10:21:25.819Z,101332.34
2023-01-29T10:24:34.274Z,101333.63
2023-01-29T10:27:40.438Z,101327.13
2023-01-29T10:30:54.853Z,101320.66
2023-01-29T10:34:07.437Z,101317.81
2023-01-29T10:37:18.661Z,101341.09
2023-01-29T10:40:42.863Z,101323.44
2023-01-29T10:44:07.513Z,101315.75
2023-01-29T10:47:35.116Z,101324.91
2023-01-29T10:51:12.134Z,101290.91
2023-01-29T10:54:33.851Z,101300.97
2023-01-29T10:57:54.985Z,101295.50
2023-01-29T11:00:58.709Z,101303.84
2023-01-29T11:04:03.934Z,101292.56
2023-01-29T11:07:06.735Z,101291.28
2023-01-29T11:10:16.511Z,101289.66
2023-01-29T11:13:19.797Z,101254.44
2023-01-29T11:16:22.241Z,101242.06
2023-01-29T11:19:40.174Z,101268.97
2023-01-29T11:22:55.691Z,101268.19
2023-01-29T11:25:59.989Z,101263.38
2023-01-29T11:29:02.677Z,101256.63
2023-01-29T11:32:08.427Z,101241.44
2023-01-29T11:35:16.862Z,101252.31
2023-01-29T11:38:29.747Z,101238.75
2023-01-29T11:41:43.818Z,101214.78
2023-01-29T11:44:46.799Z,101219.56
2023-01-29T11:47:53.049Z,101213.78
2023-01-29T11:51:00.739Z,101222.84
2023-01-29T11:54:05.496Z,101207.06
2023-01-29T11:57:23.756Z,101213.06
2023-01-29T12:00:28.771Z,101227.22
2023-01-29T12:03:43.828Z,101217.59
2023-01-29T12:06:50.619Z,101213.22
2023-01-29T12:09:58.793Z,101217.75
2023-01-29T12:13:12.046Z,101211.00
2023-01-29T12:16:25.687Z,101213.75
2023-01-29T12:19:53.361Z,101220.31
2023-01-29T12:23:11.726Z,101210.16
2023-01-29T12:26:50.849Z,101221.34
2023-01-29T12:30:18.642Z,101207.06
2023-01-29T12:33:38.797Z,101217.66
2023-01-29T12:37:11.547Z,101217.03
2023-01-29T12:40:16.924Z,101216.22
2023-01-29T12:43:47.919Z,101215.97
2023-01-29T12:46:56.960Z,101202.06
2023-01-29T12:50:06.864Z,101204.19
2023-01-29T12:53:37.925Z,101203.94
2023-01-29T12:56:47.281Z,101188.38
2023-01-29T12:59:56.637Z,101189.47
2023-01-29T13:03:18.621Z,101199.66
2023-01-29T13:06:46.535Z,101180.81
2023-01-29T13:09:57.960Z,101167.72
2023-01-29T13:13:29.306Z,101162.75
2023-01-29T13:16:40.784Z,101152.44
2023-01-29T13:19:47.110Z,101152.56
2023-01-29T13:22:51.901Z,101148.22
2023-01-29T13:25:55.099Z,101148.31
2023-01-29T13:28:58.148Z,101129.63
2023-01-29T13:32:03.424Z,101144.31
2023-01-29T13:35:14.182Z,101157.00
2023-01-29T13:38:28.214Z,101164.19
2023-01-29T13:41:37.015Z,101172.66
2023-01-29T13:44:41.030Z,101151.19
2023-01-29T13:47:43.918Z,101157.09
2023-01-29T13:50:47.585Z,101148.81
2023-01-29T13:53:57.315Z,101127.94
2023-01-29T13:57:01.467Z,101140.09
2023-01-29T14:00:06.071Z,101142.50
2023-01-29T14:03:11.887Z,101156.53
2023-01-29T14:06:36.773Z,101158.47
2023-01-29T14:09:39.436Z,101165.00
2023-01-29T14:12:43.240Z,101173.59
2023-01-29T14:16:06.901Z,101169.34
2023-01-29T14:19:18.548Z,101163.78
2023-01-29T14:22:27.089Z,101162.44
2023-01-29T14:25:38.932Z,101159.28
2023-01-29T14:28:41.438Z,101173.22
2023-01-29T14:31:49.411Z,101155.00
2023-01-29T14:34:55.823Z,101154.50
2023-01-29T14:38:02.917Z,101151.41
2023-01-29T14:41:16.352Z,101172.44
2023-01-29T14:44:47.088Z,101165.31
2023-01-29T14:47:49.456Z,101167.63
2023-01-29T14:50:56.014Z,101166.91
2023-01-29T14:54:22.955Z,101154.16
2023-01-29T14:57:26.924Z,101166.25
2023-01-29T15:00:34.486Z,101172.06
2023-01-29T15:03:45.982Z,101173.91
2023-01-29T15:06:55.269Z,101160.13
2023-01-29T15:10:21.385Z,101153.41
2023-01-29T15:13:36.023Z,101162.63
2023-01-29T15:16:48.632Z,101163.84
2023-01-29T15:19:51.484Z,101152.84
2023-01-29T15:22:54.091Z,101160.50
2023-01-29T15:26:03.221Z,101149.69
2023-01-29T15:29:06.283Z,101150.53
2023-01-29T15:32:17.226Z,101157.31
2023-01-29T15:35:37.802Z,101147.06
2023-01-29T15:38:40.643Z,101158.91
2023-01-29T15:41:45.071Z,101160.06
2023-01-29T15:44:48.142Z,101166.28
2023-01-29T15:47:51.616Z,101163.50
2023-01-29T15:50:55.387Z,101157.34
2023-01-29T15:54:01.395Z,101157.88
2023-01-29T15:57:04.212Z,101166.38
2023-01-29T16:00:20.026Z,101166.72
2023-01-29T16:03:24.958Z,101175.03
2023-01-29T16:06:30.220Z,101154.25
2023-01-29T16:09:33.829Z,101156.56
2023-01-29T16:12:37.645Z,101160.78
2023-01-29T16:15:55.431Z,101178.06
2023-01-29T16:19:00.709Z,101180.63
2023-01-29T16:22:06.978Z,101176.44
2023-01-29T16:25:14.758Z,101159.31
2023-01-29T16:28:18.568Z,101184.88
2023-01-29T16:31:26.173Z,101172.91
2023-01-29T16:34:43.473Z,101166.34
2023-01-29T16:37:51.235Z,101186.06
2023-01-29T16:41:12.271Z,101186.16
2023-01-29T16:44:20.978Z,101204.13
2023-01-29T16:47:38.315Z,101197.44
2023-01-29T16:50:54.325Z,101203.22
2023-01-29T16:54:06.384Z,101201.38
2023-01-29T16:57:17.243Z,101209.84
2023-01-29T17:00:29.647Z,101209.88
2023-01-29T17:03:34.213Z,101204.28
2023-01-29T17:06:37.297Z,101204.72
2023-01-29T17:09:41.238Z,101202.66
2023-01-29T17:12:53.840Z,101198.38
2023-01-29T17:16:13.960Z,101181.97
2023-01-29T17:19:22.020Z,101186.22
2023-01-29T17:22:24.955Z,101182.84
2023-01-29T17:25:29.016Z,101181.31
2023-01-29T17:28:31.683Z,101167.16
2023-01-29T17:31:34.549Z,101168.63
2023-01-29T17:34:37.507Z,101163.72
2023-01-29T17:37:40.401Z,101165.06
2023-01-29T17:40:48.768Z,101154.94
2023-01-29T17:43:52.069Z,101151.22
2023-01-29T17:46:54.861Z,101156.03
2023-01-29T17:49:58.618Z,101154.00
2023-01-29T17:53:02.768Z,101155.63
2023-01-29T17:56:06.124Z,101148.00
2023-01-29T17:59:16.935Z,101139.75
2023-01-29T18:02:29.420Z,101150.03
2023-01-29T18:05:32.799Z,101151.91
2023-01-29T18:08:38.407Z,101132.25
2023-01-29T18:11:42.337Z,101152.22
2023-01-29T18:14:45.265Z,101138.47
2023-01-29T18:17:48.580Z,101149.69
2023-01-29T18:20:52.105Z,101136.38
2023-01-29T18:23:54.819Z,101139.81
2023-01-29T18:26:57.549Z,101136.38
2023-01-29T18:30:00.745Z,101131.97
2023-01-29T18:33:03.442Z,101129.84
2023-01-29T18:36:06.795Z,101126.59
2023-01-29T18:39:10.762Z,101118.44
2023-01-29T18:42:13.593Z,101124.38
2023-01-29T18:45:17.309Z,101132.22
2023-01-29T18:48:20.329Z,101116.00
2023-01-29T18:51:22.881Z,101115.50
2023-01-29T18:54:27.040Z,101137.81
2023-01-29T18:58:25.004Z,101141.88
2023-01-29T19:00:52.960Z,101131.41
2023-01-29T19:03:59.244Z,101139.72
2023-01-29T19:07:01.805Z,101135.78
2023-01-29T19:10:12.704Z,101129.25
2023-01-29T19:13:16.198Z,101128.03
2023-01-29T19:16:19.158Z,101123.75
2023-01-29T19:19:21.683Z,101130.25
2023-01-29T19:22:24.488Z,101135.16
2023-01-29T19:25:27.317Z,101127.72
2023-01-29T19:28:31.721Z,101120.19
2023-01-29T19:31:34.535Z,101131.41
2023-01-29T19:34:37.370Z,101090.53
2023-01-29T19:37:40.060Z,101112.84
2023-01-29T19:40:43.244Z,101111.09
2023-01-29T19:43:48.216Z,101100.00
2023-01-29T19:46:51.015Z,101115.00
2023-01-29T19:49:53.772Z,101101.03
2023-01-29T19:52:56.362Z,101121.19
2023-01-29T19:56:00.098Z,101121.09
2023-01-29T19:59:02.714Z,101123.31
2023-01-29T20:02:05.492Z,101111.22
2023-01-29T20:05:11.264Z,101124.56
2023-01-29T20:08:13.777Z,101118.44
2023-01-29T20:11:19.365Z,101109.97
2023-01-29T20:14:22.269Z,101108.97
2023-01-29T20:17:25.003Z,101097.25
2023-01-29T20:20:31.051Z,101094.81
2023-01-29T20:23:38.424Z,101095.84
2023-01-29T20:26:41.545Z,101095.53
2023-01-29T20:29:46.667Z,101092.16
2023-01-29T20:32:49.423Z,101101.13
2023-01-29T20:35:58.896Z,101094.41
2023-01-29T20:39:01.987Z,101094.09
2023-01-29T20:42:04.766Z,101062.09
2023-01-29T20:45:07.970Z,101073.22
2023-01-29T20:48:10.728Z,101090.91
2023-01-29T20:51:16.373Z,101101.59
2023-01-29T20:54:18.815Z,101093.34
2023-01-29T20:57:21.896Z,101086.66
2023-01-29T21:00:24.601Z,101097.25
2023-01-29T21:03:27.508Z,101107.84
2023-01-29T21:06:30.169Z,101091.22
2023-01-29T21:09:33.005Z,101108.94
2023-01-29T21:12:35.675Z,101128.41
2023-01-29T21:15:38.709Z,101133.19
2023-01-29T21:18:41.350Z,101118.69
2023-01-29T21:21:44.123Z,101118.22
2023-01-29T21:24:47.101Z,101137.13
2023-01-29T21:27:50.839Z,101122.47
2023-01-29T21:31:03.893Z,101122.69
2023-01-29T21:34:07.254Z,101107.56
2023-01-29T21:37:09.739Z,101099.09
2023-01-29T21:40:13.236Z,101118.78
2023-01-29T21:43:16.223Z,101105.94
2023-01-29T21:46:18.722Z,101126.94
2023-01-29T21:49:21.519Z,101128.75
2023-01-29T21:52:24.022Z,101115.50
2023-01-29T21:55:26.781Z,101103.94
2023-01-29T21:58:30.017Z,101116.34
2023-01-29T22:01:37.617Z,101103.31
2023-01-29T22:04:42.421Z,101109.03
2023-01-29T22:07:44.908Z,101098.25
2023-01-29T22:10:47.507Z,101091.22
2023-01-29T22:13:50.144Z,101081.97
2023-01-29T22:16:52.643Z,101082.66
2023-01-29T22:19:55.049Z,101070.59
2023-01-29T22:22:59.360Z,101068.88
2023-01-29T22:26:03.814Z,101053.88
2023-01-29T22:29:06.239Z,101069.06
2023-01-29T22:32:10.621Z,101057.97
2023-01-29T22:35:13.241Z,101059.38
2023-01-29T22:38:15.759Z,101052.47
2023-01-29T22:41:18.257Z,101044.59
2023-01-29T22:44:20.881Z,101034.84
2023-01-29T22:47:23.335Z,101033.41
2023-01-29T22:50:25.799Z,101029.97
2023-01-29T22:53:28.241Z,101022.94
2023-01-29T22:56:31.201Z,101036.69
2023-01-29T22:59:34.951Z,101026.59
2023-01-29T23:02:37.603Z,101017.44
2023-01-29T23:05:40.125Z,101022.94
2023-01-29T23:08:43.080Z,101030.34
2023-01-29T23:11:45.460Z,101014.81
2023-01-29T23:14:47.959Z,101015.63
2023-01-29T23:17:50.409Z,101010.53
2023-01-29T23:20:57.359Z,101012.25
2023-01-29T23:24:01.060Z,101005.25
2023-01-29T23:27:15.686Z,101006.16
2023-01-29T23:30:18.527Z,101004.09
2023-01-29T23:33:21.392Z,101003.22
2023-01-29T23:36:23.945Z,101010.03
2023-01-29T23:39:26.501Z,100994.03
2023-01-29T23:42:28.988Z,100996.38
2023-01-29T23:45:31.467Z,101000.13
2023-01-29T23:48:34.118Z,100970.09
2023-01-29T23:51:36.686Z,100980.59
2023-01-29T23:54:40.269Z,100979.56
2023-01-29T23:57:42.715Z,100967.38
